Fernando Pessoa — CSKQ — position and weather

sailwx.info

Track history (hours):
 
Tides and Currents Weather Stations Pressure Air Temp Water Temp Dewpoint Dewpoint Depression Visibility Wind Speed Wind Dir Waves Ship Positions

Fernando Pessoa

Last reported at 2017-Jan-19 20:33 UTC. Time now 2017-Jan-20 05:54 UTC.
Position N 38°42' W 009°08'.

Length 49 m.

Type: Passenger vessel. MMSI: 263701470.

Date/timePositionNaut miles runAvg speedWind from/ knotsBaromVisibWave heightAir tempDewpointWater temp
2017-Jan-19 20:33N 38°42' W 009°08'0 0.4
2017-Jan-19 19:34N 38°42' W 009°08'0 0.5
2017-Jan-19 18:33N 38°42' W 009°08'3 3.1
2017-Jan-19 17:33N 38°39' W 009°06'3 3.1
2017-Jan-19 16:34N 38°42' W 009°08'1 1.2
2017-Jan-19 15:34N 38°41' W 009°08'0 0.1
2017-Jan-19 14:34N 38°41' W 009°08'0 0.1
2017-Jan-19 13:33N 38°41' W 009°08'0 0.1
2017-Jan-19 12:34N 38°41' W 009°08'0 0.1
2017-Jan-19 11:33N 38°41' W 009°08'3 2.7
2017-Jan-19 10:32N 38°39' W 009°05'4 4.2
2017-Jan-19 09:33N 38°42' W 009°08'0 0.0
2017-Jan-19 08:33N 38°42' W 009°08'3 3.2
2017-Jan-19 07:33N 38°40' W 009°06'1 0.1
2017-Jan-18 21:19N 38°39' W 009°05'3 4.4
2017-Jan-18 20:33N 38°42' W 009°08'3 2.5
2017-Jan-18 19:33N 38°39' W 009°06'3 2.9
2017-Jan-18 18:34N 38°42' W 009°08'0 0.5
2017-Jan-18 17:34N 38°42' W 009°08'1 0.9
2017-Jan-18 16:33N 38°42' W 009°08'3 3.3
2017-Jan-18 15:33N 38°39' W 009°05'2 1.9
2017-Jan-18 14:33N 38°40' W 009°07'1 0.9
2017-Jan-18 13:34N 38°40' W 009°06'1 0.9
2017-Jan-18 12:33N 38°39' W 009°05'0 0.0
2017-Jan-18 11:33N 38°39' W 009°05'3 2.7
2017-Jan-18 10:34N 38°41' W 009°08'3 2.7
2017-Jan-18 09:33N 38°39' W 009°05'1 0.9
2017-Jan-18 08:33N 38°39' W 009°06'3 2.9
2017-Jan-18 07:34N 38°42' W 009°08'1 0.6
2017-Jan-18 06:34N 38°42' W 009°08'0 0.3
2017-Jan-18 05:33N 38°42' W 009°08'4 3.9
2017-Jan-18 04:33N 38°39' W 009°05'0 0.0
2017-Jan-18 03:33N 38°39' W 009°05'0 0.0
2017-Jan-18 02:33N 38°39' W 009°05'1 0.5
2017-Jan-18 01:33N 38°39' W 009°05'0 0.2
2017-Jan-18 00:34N 38°39' W 009°05'0 0.1
2017-Jan-17 23:33N 38°39' W 009°05'1 1.5
2017-Jan-17 22:34N 38°40' W 009°07'0 0.2
2017-Jan-17 21:34N 38°40' W 009°07'2 1.9
2017-Jan-17 20:34N 38°39' W 009°05'0 0.0
2017-Jan-17 19:33N 38°39' W 009°05'1 0.9
2017-Jan-17 18:33N 38°39' W 009°06'3 3.0
2017-Jan-17 17:34N 38°42' W 009°08'4 3.6
2017-Jan-17 16:33N 38°39' W 009°05'0 0.0
2017-Jan-17 13:07N 38°39' W 009°05'0 0.0
2017-Jan-17 12:33N 38°39' W 009°05'0 0.0
2017-Jan-17 11:33N 38°39' W 009°05'0 0.0
2017-Jan-17 10:33N 38°39' W 009°05'1 1.0
2017-Jan-17 09:33N 38°40' W 009°06'3 2.7
2017-Jan-17 08:34N 38°42' W 009°08'1 0.5
2017-Jan-17 07:33N 38°42' W 009°08'0 0.0
2017-Jan-16 20:33N 38°42' W 009°08'0 0.2
2017-Jan-16 19:34N 38°42' W 009°08'1 0.7
2017-Jan-16 18:34N 38°42' W 009°08'3 3.2
2017-Jan-16 17:33N 38°39' W 009°05'3 3.4
2017-Jan-16 16:33N 38°42' W 009°08'1 0.9
2017-Jan-16 15:33N 38°41' W 009°08'0 0.1
2017-Jan-16 14:33N 38°41' W 009°08'0 0.4
2017-Jan-16 13:33N 38°40' W 009°08'0 0.2
2017-Jan-16 12:33N 38°41' W 009°08'0 0.1
2017-Jan-16 11:33N 38°41' W 009°08'3 2.9
2017-Jan-16 10:33N 38°39' W 009°05'4 4.1
2017-Jan-16 09:34N 38°42' W 009°08'0 0.0
2017-Jan-16 08:33N 38°42' W 009°08'3 2.9
2017-Jan-16 07:34N 38°40' W 009°06'1 1.3
2017-Jan-16 06:33N 38°39' W 009°05'  
2017-Jan-13 21:13N 38°39' W 009°05'4 5.9
2017-Jan-13 20:33N 38°42' W 009°08'0 0.1
2017-Jan-13 19:33N 38°42' W 009°08'2 1.5
2017-Jan-13 18:34N 38°41' W 009°08'3 2.8
2017-Jan-13 17:33N 38°39' W 009°05'4 3.7
2017-Jan-13 16:34N 38°42' W 009°08'2 1.6
2017-Jan-13 15:34N 38°40' W 009°08'0 0.2
2017-Jan-13 14:33N 38°41' W 009°08'0 0.0
2017-Jan-13 13:33N 38°41' W 009°08'0 0.1
2017-Jan-13 12:33N 38°41' W 009°08'0 0.4
2017-Jan-13 11:33N 38°41' W 009°08'3 2.9
2017-Jan-13 10:33N 38°39' W 009°05'4 4.1
2017-Jan-13 09:33N 38°42' W 009°08'0 0.1
2017-Jan-13 08:34N 38°42' W 009°08'3 2.9
2017-Jan-13 07:34N 38°40' W 009°06'1 1.3
2017-Jan-13 06:32N 38°39' W 009°05'0 0.0
2017-Jan-12 21:24N 38°39' W 009°05'0 0.0
2017-Jan-12 20:33N 38°39' W 009°05'3 3.5
2017-Jan-12 19:33N 38°42' W 009°08'1 0.6
2017-Jan-12 18:33N 38°42' W 009°08'3 2.6
2017-Jan-12 17:33N 38°40' W 009°07'2 1.8
2017-Jan-12 16:34N 38°39' W 009°05'2 1.5
2017-Jan-12 15:33N 38°40' W 009°07'2 1.5
2017-Jan-12 14:33N 38°39' W 009°05'0 0.0
2017-Jan-12 13:33N 38°39' W 009°05'0 0.0
2017-Jan-12 12:33N 38°39' W 009°05'0 0.0
2017-Jan-12 11:33N 38°39' W 009°05'1 1.3
2017-Jan-12 10:33N 38°40' W 009°06'1 0.8
2017-Jan-12 09:33N 38°39' W 009°05'1 0.5
2017-Jan-12 08:33N 38°39' W 009°05'0 0.0
2017-Jan-12 07:33N 38°39' W 009°05'0 0.0
2017-Jan-12 06:33N 38°39' W 009°05'0 0.0
2017-Jan-12 05:33N 38°39' W 009°05'4 0.6
2017-Jan-11 23:34N 38°42' W 009°08'1 1.1
2017-Jan-11 22:33N 38°41' W 009°08'0 0.3
2017-Jan-11 21:33N 38°41' W 009°08'2 1.6
2017-Jan-11 20:33N 38°42' W 009°08'0 0.4
2017-Jan-11 19:34N 38°42' W 009°08'1 1.1
2017-Jan-11 18:34N 38°41' W 009°08'3 2.8
2017-Jan-11 17:34N 38°39' W 009°05'3 3.4
2017-Jan-11 16:34N 38°42' W 009°08'1 0.8
2017-Jan-11 15:33N 38°41' W 009°08'1 0.6
2017-Jan-11 14:33N 38°41' W 009°08'0 0.1
2017-Jan-11 13:33N 38°41' W 009°08'0 0.1
2017-Jan-11 12:33N 38°41' W 009°08'0 0.2
2017-Jan-11 11:33N 38°40' W 009°08'2 2.5
2017-Jan-11 10:34N 38°39' W 009°05'4 4.1
2017-Jan-11 09:34N 38°42' W 009°08'0 0.0
2017-Jan-11 08:33N 38°42' W 009°08'2 2.5
2017-Jan-11 07:33N 38°40' W 009°07'2 1.9
2017-Jan-11 06:33N 38°39' W 009°05'0 0.0
2017-Jan-10 21:33N 38°39' W 009°05'0 0.0
2017-Jan-10 20:33N 38°39' W 009°05'3 3.0
2017-Jan-10 19:34N 38°41' W 009°08'1 1.3
2017-Jan-10 18:33N 38°40' W 009°07'2 1.7
2017-Jan-10 17:33N 38°39' W 009°05'0 0.1
2017-Jan-10 16:33N 38°39' W 009°05'0 0.2
2017-Jan-10 15:33N 38°39' W 009°05'0 0.0
2017-Jan-10 14:33N 38°39' W 009°05'0 0.0
2017-Jan-10 13:33N 38°39' W 009°05'0 0.0
2017-Jan-10 12:33N 38°39' W 009°05'0 0.0
2017-Jan-10 11:33N 38°39' W 009°05'0 0.1
2017-Jan-10 10:33N 38°39' W 009°05'1 0.9
2017-Jan-10 09:33N 38°39' W 009°06'3 2.8
2017-Jan-10 08:34N 38°42' W 009°08'1 0.7
2017-Jan-10 07:33N 38°42' W 009°08'4 0.4
2017-Jan-09 21:12N 38°39' W 009°05'4 5.7
2017-Jan-09 20:34N 38°42' W 009°08'  
Track history (hours):
 
Tides and Currents Weather Stations Pressure Air Temp Water Temp Dewpoint Dewpoint Depression Visibility Wind Speed Wind Dir Waves Ship Positions

Fernando Pessoa

Last reported at 2017-Jan-19 20:33 UTC. Time now 2017-Jan-20 05:54 UTC.
Position N 38°42' W 009°08'.

Length 49 m.

Type: Passenger vessel. MMSI: 263701470.

Date/timePositionNaut miles runAvg speedWind from/ knotsBaromVisibWave heightAir tempDewpointWater temp
2017-Jan-19 20:33N 38°42' W 009°08'0 0.4
2017-Jan-19 19:34N 38°42' W 009°08'0 0.5
2017-Jan-19 18:33N 38°42' W 009°08'3 3.1
2017-Jan-19 17:33N 38°39' W 009°06'3 3.1
2017-Jan-19 16:34N 38°42' W 009°08'1 1.2
2017-Jan-19 15:34N 38°41' W 009°08'0 0.1
2017-Jan-19 14:34N 38°41' W 009°08'0 0.1
2017-Jan-19 13:33N 38°41' W 009°08'0 0.1
2017-Jan-19 12:34N 38°41' W 009°08'0 0.1
2017-Jan-19 11:33N 38°41' W 009°08'3 2.7
2017-Jan-19 10:32N 38°39' W 009°05'4 4.2
2017-Jan-19 09:33N 38°42' W 009°08'0 0.0
2017-Jan-19 08:33N 38°42' W 009°08'3 3.2
2017-Jan-19 07:33N 38°40' W 009°06'1 0.1
2017-Jan-18 21:19N 38°39' W 009°05'3 4.4
2017-Jan-18 20:33N 38°42' W 009°08'3 2.5
2017-Jan-18 19:33N 38°39' W 009°06'3 2.9
2017-Jan-18 18:34N 38°42' W 009°08'0 0.5
2017-Jan-18 17:34N 38°42' W 009°08'1 0.9
2017-Jan-18 16:33N 38°42' W 009°08'3 3.3
2017-Jan-18 15:33N 38°39' W 009°05'2 1.9
2017-Jan-18 14:33N 38°40' W 009°07'1 0.9
2017-Jan-18 13:34N 38°40' W 009°06'1 0.9
2017-Jan-18 12:33N 38°39' W 009°05'0 0.0
2017-Jan-18 11:33N 38°39' W 009°05'3 2.7
2017-Jan-18 10:34N 38°41' W 009°08'3 2.7
2017-Jan-18 09:33N 38°39' W 009°05'1 0.9
2017-Jan-18 08:33N 38°39' W 009°06'3 2.9
2017-Jan-18 07:34N 38°42' W 009°08'1 0.6
2017-Jan-18 06:34N 38°42' W 009°08'0 0.3
2017-Jan-18 05:33N 38°42' W 009°08'4 3.9
2017-Jan-18 04:33N 38°39' W 009°05'0 0.0
2017-Jan-18 03:33N 38°39' W 009°05'0 0.0
2017-Jan-18 02:33N 38°39' W 009°05'1 0.5
2017-Jan-18 01:33N 38°39' W 009°05'0 0.2
2017-Jan-18 00:34N 38°39' W 009°05'0 0.1
2017-Jan-17 23:33N 38°39' W 009°05'1 1.5
2017-Jan-17 22:34N 38°40' W 009°07'0 0.2
2017-Jan-17 21:34N 38°40' W 009°07'2 1.9
2017-Jan-17 20:34N 38°39' W 009°05'0 0.0
2017-Jan-17 19:33N 38°39' W 009°05'1 0.9
2017-Jan-17 18:33N 38°39' W 009°06'3 3.0
2017-Jan-17 17:34N 38°42' W 009°08'4 3.6
2017-Jan-17 16:33N 38°39' W 009°05'0 0.0
2017-Jan-17 13:07N 38°39' W 009°05'0 0.0
2017-Jan-17 12:33N 38°39' W 009°05'0 0.0
2017-Jan-17 11:33N 38°39' W 009°05'0 0.0
2017-Jan-17 10:33N 38°39' W 009°05'1 1.0
2017-Jan-17 09:33N 38°40' W 009°06'3 2.7
2017-Jan-17 08:34N 38°42' W 009°08'1 0.5
2017-Jan-17 07:33N 38°42' W 009°08'0 0.0
2017-Jan-16 20:33N 38°42' W 009°08'0 0.2
2017-Jan-16 19:34N 38°42' W 009°08'1 0.7
2017-Jan-16 18:34N 38°42' W 009°08'3 3.2
2017-Jan-16 17:33N 38°39' W 009°05'3 3.4
2017-Jan-16 16:33N 38°42' W 009°08'1 0.9
2017-Jan-16 15:33N 38°41' W 009°08'0 0.1
2017-Jan-16 14:33N 38°41' W 009°08'0 0.4
2017-Jan-16 13:33N 38°40' W 009°08'0 0.2
2017-Jan-16 12:33N 38°41' W 009°08'0 0.1
2017-Jan-16 11:33N 38°41' W 009°08'3 2.9
2017-Jan-16 10:33N 38°39' W 009°05'4 4.1
2017-Jan-16 09:34N 38°42' W 009°08'0 0.0
2017-Jan-16 08:33N 38°42' W 009°08'3 2.9
2017-Jan-16 07:34N 38°40' W 009°06'1 1.3
2017-Jan-16 06:33N 38°39' W 009°05'  
2017-Jan-13 21:13N 38°39' W 009°05'4 5.9
2017-Jan-13 20:33N 38°42' W 009°08'0 0.1
2017-Jan-13 19:33N 38°42' W 009°08'2 1.5
2017-Jan-13 18:34N 38°41' W 009°08'3 2.8
2017-Jan-13 17:33N 38°39' W 009°05'4 3.7
2017-Jan-13 16:34N 38°42' W 009°08'2 1.6
2017-Jan-13 15:34N 38°40' W 009°08'0 0.2
2017-Jan-13 14:33N 38°41' W 009°08'0 0.0
2017-Jan-13 13:33N 38°41' W 009°08'0 0.1
2017-Jan-13 12:33N 38°41' W 009°08'0 0.4
2017-Jan-13 11:33N 38°41' W 009°08'3 2.9
2017-Jan-13 10:33N 38°39' W 009°05'4 4.1
2017-Jan-13 09:33N 38°42' W 009°08'0 0.1
2017-Jan-13 08:34N 38°42' W 009°08'3 2.9
2017-Jan-13 07:34N 38°40' W 009°06'1 1.3
2017-Jan-13 06:32N 38°39' W 009°05'0 0.0
2017-Jan-12 21:24N 38°39' W 009°05'0 0.0
2017-Jan-12 20:33N 38°39' W 009°05'3 3.5
2017-Jan-12 19:33N 38°42' W 009°08'1 0.6
2017-Jan-12 18:33N 38°42' W 009°08'3 2.6
2017-Jan-12 17:33N 38°40' W 009°07'2 1.8
2017-Jan-12 16:34N 38°39' W 009°05'2 1.5
2017-Jan-12 15:33N 38°40' W 009°07'2 1.5
2017-Jan-12 14:33N 38°39' W 009°05'0 0.0
2017-Jan-12 13:33N 38°39' W 009°05'0 0.0
2017-Jan-12 12:33N 38°39' W 009°05'0 0.0
2017-Jan-12 11:33N 38°39' W 009°05'1 1.3
2017-Jan-12 10:33N 38°40' W 009°06'1 0.8
2017-Jan-12 09:33N 38°39' W 009°05'1 0.5
2017-Jan-12 08:33N 38°39' W 009°05'0 0.0
2017-Jan-12 07:33N 38°39' W 009°05'0 0.0
2017-Jan-12 06:33N 38°39' W 009°05'0 0.0
2017-Jan-12 05:33N 38°39' W 009°05'4 0.6
2017-Jan-11 23:34N 38°42' W 009°08'1 1.1
2017-Jan-11 22:33N 38°41' W 009°08'0 0.3
2017-Jan-11 21:33N 38°41' W 009°08'2 1.6
2017-Jan-11 20:33N 38°42' W 009°08'0 0.4
2017-Jan-11 19:34N 38°42' W 009°08'1 1.1
2017-Jan-11 18:34N 38°41' W 009°08'3 2.8
2017-Jan-11 17:34N 38°39' W 009°05'3 3.4
2017-Jan-11 16:34N 38°42' W 009°08'1 0.8
2017-Jan-11 15:33N 38°41' W 009°08'1 0.6
2017-Jan-11 14:33N 38°41' W 009°08'0 0.1
2017-Jan-11 13:33N 38°41' W 009°08'0 0.1
2017-Jan-11 12:33N 38°41' W 009°08'0 0.2
2017-Jan-11 11:33N 38°40' W 009°08'2 2.5
2017-Jan-11 10:34N 38°39' W 009°05'4 4.1
2017-Jan-11 09:34N 38°42' W 009°08'0 0.0
2017-Jan-11 08:33N 38°42' W 009°08'2 2.5
2017-Jan-11 07:33N 38°40' W 009°07'2 1.9
2017-Jan-11 06:33N 38°39' W 009°05'0 0.0
2017-Jan-10 21:33N 38°39' W 009°05'0 0.0
2017-Jan-10 20:33N 38°39' W 009°05'3 3.0
2017-Jan-10 19:34N 38°41' W 009°08'1 1.3
2017-Jan-10 18:33N 38°40' W 009°07'2 1.7
2017-Jan-10 17:33N 38°39' W 009°05'0 0.1
2017-Jan-10 16:33N 38°39' W 009°05'0 0.2
2017-Jan-10 15:33N 38°39' W 009°05'0 0.0
2017-Jan-10 14:33N 38°39' W 009°05'0 0.0
2017-Jan-10 13:33N 38°39' W 009°05'0 0.0
2017-Jan-10 12:33N 38°39' W 009°05'0 0.0
2017-Jan-10 11:33N 38°39' W 009°05'0 0.1
2017-Jan-10 10:33N 38°39' W 009°05'1 0.9
2017-Jan-10 09:33N 38°39' W 009°06'3 2.8
2017-Jan-10 08:34N 38°42' W 009°08'1 0.7
2017-Jan-10 07:33N 38°42' W 009°08'4 0.4
2017-Jan-09 21:12N 38°39' W 009°05'4 5.7
2017-Jan-09 20:34N 38°42' W 009°08'  

Dump ship's entire track history